Marine, Minnesota
Current Conditions -  °F | °C
As of 12:15 PM on Wednesday 28 Jan 2015 (Local Time) from KRNH Reporting Station
Haze Haze  
Wind Chill: 17°   Ceiling: 900
Heat Index: 28°   Visibility: 3mi
Dew Point: 24°   Wind: 14mph
Humidity: 85%   Direction: 160°SSE
Pressure: 29.94"   Gusts: 20mph
Location:  45.1574°N, 92.7623°W
Report Text: KRNH 281815Z AUTO 16012G17KT 3SM BR OVC009 M02/M04 A2994 RMK AO2 T10231045
Loading
Personal Weather Stations






























Interactive Weather Map New forecast layout! Learn more

10-Day Weather Forecast

Advertisements
Track Severe Weather on mobile